createdAt,value
2018-09-23T00:03:11.404Z,14.60
2018-09-23T00:05:40.349Z,14.60
2018-09-23T00:08:09.400Z,14.60
2018-09-23T00:10:37.692Z,14.60
2018-09-23T00:13:07.127Z,14.70
2018-09-23T00:15:35.755Z,14.70
2018-09-23T00:18:04.051Z,14.60
2018-09-23T00:20:32.361Z,14.60
2018-09-23T00:23:00.722Z,14.70
2018-09-23T00:25:29.018Z,14.60
2018-09-23T00:27:57.379Z,14.60
2018-09-23T00:30:25.674Z,14.60
2018-09-23T00:32:54.018Z,14.60
2018-09-23T00:35:22.301Z,14.50
2018-09-23T00:37:50.610Z,14.40
2018-09-23T00:40:18.981Z,14.40
2018-09-23T00:42:47.273Z,14.40
2018-09-23T00:45:15.563Z,14.40
2018-09-23T00:47:43.909Z,14.40
2018-09-23T00:50:12.190Z,14.30
2018-09-23T00:52:40.746Z,14.40
2018-09-23T00:55:09.050Z,14.30
2018-09-23T00:57:37.861Z,14.20
2018-09-23T01:00:06.594Z,14.10
2018-09-23T01:02:35.761Z,14.20
2018-09-23T01:05:04.106Z,14.30
2018-09-23T01:07:32.395Z,14.30
2018-09-23T01:10:00.751Z,14.20
2018-09-23T01:12:29.089Z,14.20
2018-09-23T01:14:58.163Z,14.00
2018-09-23T01:17:26.498Z,14.00
2018-09-23T01:19:55.185Z,14.00
2018-09-23T01:22:23.462Z,14.00
2018-09-23T01:24:51.795Z,14.10
2018-09-23T01:27:20.813Z,14.10
2018-09-23T01:29:49.209Z,14.10
2018-09-23T01:32:18.137Z,14.00
2018-09-23T01:37:40.065Z,13.80
2018-09-23T01:40:08.396Z,13.80
2018-09-23T01:42:36.709Z,13.80
2018-09-23T01:45:05.237Z,13.90
2018-09-23T01:47:33.501Z,13.90
2018-09-23T01:50:02.542Z,14.00
2018-09-23T01:52:30.817Z,14.10
2018-09-23T01:54:59.790Z,13.90
2018-09-23T01:57:28.604Z,13.90
2018-09-23T01:59:56.874Z,14.00
2018-09-23T02:02:25.563Z,14.10
2018-09-23T02:04:53.905Z,14.00
2018-09-23T02:07:22.181Z,13.90
2018-09-23T02:09:50.515Z,14.00
2018-09-23T02:12:18.787Z,13.90
2018-09-23T02:14:47.249Z,14.00
2018-09-23T02:17:15.531Z,14.00
2018-09-23T02:19:43.841Z,14.00
2018-09-23T02:22:12.152Z,14.00
2018-09-23T02:24:40.426Z,13.80
2018-09-23T02:27:08.823Z,13.90
2018-09-23T02:29:37.086Z,13.90
2018-09-23T02:32:05.600Z,13.80
2018-09-23T02:34:33.989Z,13.70
2018-09-23T02:37:02.649Z,13.60
2018-09-23T02:39:30.957Z,13.60
2018-09-23T02:41:59.224Z,13.60
2018-09-23T02:44:27.505Z,13.70
2018-09-23T02:46:55.757Z,13.70
2018-09-23T02:49:24.182Z,13.70
2018-09-23T02:51:55.764Z,13.60
2018-09-23T02:54:24.058Z,13.60
2018-09-23T02:56:52.330Z,13.60
2018-09-23T02:59:20.638Z,13.60
2018-09-23T03:01:49.700Z,13.50
2018-09-23T03:04:18.604Z,13.50
2018-09-23T03:06:46.893Z,13.70
2018-09-23T03:09:15.171Z,13.70
2018-09-23T03:11:43.479Z,13.60
2018-09-23T03:14:11.783Z,13.60
2018-09-23T03:16:40.874Z,13.50
2018-09-23T03:19:09.134Z,13.50
2018-09-23T03:21:37.409Z,13.50
2018-09-23T03:24:05.764Z,13.40
2018-09-23T03:26:34.139Z,13.40
2018-09-23T03:29:02.487Z,13.50
2018-09-23T03:31:30.764Z,13.40
2018-09-23T03:33:59.034Z,13.40
2018-09-23T03:36:27.640Z,13.30
2018-09-23T03:38:56.832Z,13.50
2018-09-23T03:41:25.125Z,13.40
2018-09-23T03:43:53.434Z,13.40
2018-09-23T03:46:22.037Z,13.40
2018-09-23T03:48:50.330Z,13.30
2018-09-23T03:51:18.824Z,13.30
2018-09-23T03:53:47.443Z,13.40
2018-09-23T03:56:15.738Z,13.30
2018-09-23T03:58:44.007Z,13.40
2018-09-23T04:01:12.319Z,13.30
2018-09-23T04:03:40.839Z,13.40
2018-09-23T04:06:09.103Z,13.40
2018-09-23T04:08:37.380Z,13.40
2018-09-23T04:11:05.880Z,13.40
2018-09-23T04:13:34.164Z,13.30
2018-09-23T04:16:02.782Z,13.40
2018-09-23T04:18:31.119Z,13.40
2018-09-23T04:20:59.396Z,13.40
2018-09-23T04:23:27.713Z,13.40
2018-09-23T04:25:56.055Z,13.50
2018-09-23T04:28:24.501Z,13.40
2018-09-23T04:30:52.817Z,13.30
2018-09-23T04:33:21.166Z,13.30
2018-09-23T04:35:50.355Z,13.40
2018-09-23T04:38:18.661Z,13.40
2018-09-23T04:40:47.761Z,13.40
2018-09-23T04:43:16.358Z,13.50
2018-09-23T04:45:44.676Z,13.50
2018-09-23T04:48:12.965Z,13.50
2018-09-23T04:50:41.292Z,13.60
2018-09-23T04:53:09.560Z,13.60
2018-09-23T04:55:38.103Z,13.50
2018-09-23T04:58:06.428Z,13.50
2018-09-23T05:00:34.681Z,13.60
2018-09-23T05:03:03.832Z,13.50
2018-09-23T05:05:32.104Z,13.40
2018-09-23T05:08:00.377Z,13.40
2018-09-23T05:10:28.721Z,13.40
2018-09-23T05:12:57.015Z,13.50
2018-09-23T05:15:25.632Z,13.30
2018-09-23T05:17:53.905Z,13.50
2018-09-23T05:20:22.182Z,13.50
2018-09-23T05:22:50.474Z,13.60
2018-09-23T05:27:49.146Z,13.70
2018-09-23T05:30:17.419Z,13.30
2018-09-23T05:32:46.062Z,13.20
2018-09-23T05:35:14.896Z,13.30
2018-09-23T05:37:43.600Z,13.30
2018-09-23T05:40:12.342Z,13.20
2018-09-23T05:42:40.619Z,13.00
2018-09-23T05:45:09.780Z,13.00
2018-09-23T05:47:38.070Z,13.30
2018-09-23T05:50:06.759Z,13.30
2018-09-23T05:52:35.085Z,13.20
2018-09-23T05:55:03.397Z,13.00
2018-09-23T05:57:31.681Z,12.90
2018-09-23T06:00:00.039Z,13.00
2018-09-23T06:02:29.009Z,13.20
2018-09-23T06:04:57.294Z,13.30
2018-09-23T06:07:25.578Z,13.10
2018-09-23T06:09:53.858Z,13.10
2018-09-23T06:12:22.222Z,13.10
2018-09-23T06:14:51.233Z,13.10
2018-09-23T06:17:19.492Z,13.10
2018-09-23T06:19:47.722Z,13.10
2018-09-23T06:22:16.025Z,13.00
2018-09-23T06:24:44.979Z,13.10
2018-09-23T06:27:13.685Z,13.10
2018-09-23T06:29:41.970Z,12.90
2018-09-23T06:32:10.230Z,13.00
2018-09-23T06:34:39.634Z,12.90
2018-09-23T06:37:08.272Z,13.00
2018-09-23T06:39:36.529Z,13.00
2018-09-23T06:42:04.843Z,13.10
2018-09-23T06:44:33.150Z,13.10
2018-09-23T06:47:01.426Z,13.10
2018-09-23T06:49:30.113Z,12.90
2018-09-23T06:51:58.410Z,12.90
2018-09-23T06:54:26.682Z,13.00
2018-09-23T06:56:54.964Z,13.10
2018-09-23T06:59:23.344Z,13.10
2018-09-23T07:01:52.590Z,13.10
2018-09-23T07:04:21.794Z,13.20
2018-09-23T07:06:50.073Z,13.10
2018-09-23T07:09:18.336Z,13.10
2018-09-23T07:11:46.637Z,13.10
2018-09-23T07:14:15.413Z,13.10
2018-09-23T07:16:43.932Z,13.00
2018-09-23T07:19:12.970Z,12.90
2018-09-23T07:21:41.231Z,12.80
2018-09-23T07:24:10.097Z,12.80
2018-09-23T07:26:38.980Z,12.90
2018-09-23T07:29:07.257Z,12.90
2018-09-23T07:31:35.574Z,12.80
2018-09-23T07:34:04.012Z,12.90
2018-09-23T07:36:33.117Z,13.00
2018-09-23T07:39:01.367Z,13.00
2018-09-23T07:41:29.637Z,13.10
2018-09-23T07:43:57.958Z,13.00
2018-09-23T07:46:26.214Z,13.00
2018-09-23T07:48:54.588Z,13.10
2018-09-23T07:51:22.897Z,13.10
2018-09-23T07:53:51.166Z,13.00
2018-09-23T07:56:19.489Z,13.10
2018-09-23T07:58:47.758Z,13.10
2018-09-23T08:03:50.267Z,13.20
2018-09-23T08:06:19.254Z,13.20
2018-09-23T08:08:48.294Z,13.20
2018-09-23T08:11:16.563Z,13.10
2018-09-23T08:13:45.071Z,13.00
2018-09-23T08:16:13.793Z,13.00
2018-09-23T08:18:42.102Z,13.10
2018-09-23T08:21:10.903Z,13.10
2018-09-23T08:23:39.122Z,13.00
2018-09-23T08:26:20.598Z,13.10
2018-09-23T08:28:48.873Z,13.20
2018-09-23T08:31:17.158Z,13.10
2018-09-23T08:33:45.442Z,13.10
2018-09-23T08:36:14.433Z,13.10
2018-09-23T08:38:42.942Z,13.10
2018-09-23T08:41:11.221Z,13.20
2018-09-23T08:43:39.543Z,13.30
2018-09-23T08:46:07.790Z,13.40
2018-09-23T08:48:36.216Z,13.40
2018-09-23T08:51:04.534Z,13.20
2018-09-23T08:53:32.858Z,13.20
2018-09-23T08:56:01.143Z,13.30
2018-09-23T08:58:29.458Z,13.40
2018-09-23T09:00:57.812Z,13.30
2018-09-23T09:03:26.699Z,13.40
2018-09-23T09:05:54.983Z,13.50
2018-09-23T09:08:23.258Z,13.60
2018-09-23T09:10:51.549Z,13.70
2018-09-23T09:13:19.802Z,13.70
2018-09-23T09:15:48.405Z,13.80
2018-09-23T09:18:16.701Z,13.90
2018-09-23T09:20:44.963Z,13.80
2018-09-23T09:23:13.358Z,13.90
2018-09-23T09:25:41.658Z,13.90
2018-09-23T09:28:10.779Z,13.90
2018-09-23T09:30:40.550Z,14.00
2018-09-23T09:33:08.903Z,13.90
2018-09-23T09:35:37.843Z,14.10
2018-09-23T09:38:06.174Z,14.10
2018-09-23T09:40:34.759Z,14.10
2018-09-23T09:43:03.194Z,14.00
2018-09-23T09:45:31.655Z,14.10
2018-09-23T09:48:00.015Z,14.10
2018-09-23T09:50:28.786Z,14.20
2018-09-23T09:52:57.509Z,14.20
2018-09-23T09:55:25.842Z,14.20
2018-09-23T09:57:54.204Z,14.30
2018-09-23T10:00:28.309Z,14.30
2018-09-23T10:02:57.628Z,14.30
2018-09-23T10:05:26.022Z,14.40
2018-09-23T10:07:54.294Z,14.50
2018-09-23T10:10:22.566Z,14.50
2018-09-23T10:12:50.855Z,14.60
2018-09-23T10:15:19.759Z,14.60
2018-09-23T10:17:48.051Z,14.70
2018-09-23T10:20:16.506Z,14.80
2018-09-23T10:22:45.107Z,15.10
2018-09-23T10:25:13.353Z,15.20
2018-09-23T10:27:42.106Z,15.30
2018-09-23T10:30:10.705Z,15.40
2018-09-23T10:32:39.117Z,15.60
2018-09-23T10:35:08.411Z,15.70
2018-09-23T10:37:37.046Z,15.80
2018-09-23T10:40:05.815Z,15.80
2018-09-23T10:42:34.678Z,15.90
2018-09-23T10:45:03.048Z,15.90
2018-09-23T10:47:31.577Z,16.10
2018-09-23T10:50:00.297Z,16.40
2018-09-23T10:52:28.578Z,16.40
2018-09-23T10:54:56.827Z,16.40
2018-09-23T10:57:25.147Z,16.20
2018-09-23T10:59:53.491Z,16.30
2018-09-23T11:02:22.860Z,16.40
2018-09-23T11:04:51.147Z,16.40
2018-09-23T11:07:19.453Z,16.60
2018-09-23T11:09:47.859Z,16.50
2018-09-23T11:12:16.057Z,16.50
2018-09-23T11:14:45.031Z,16.50
2018-09-23T11:17:13.334Z,16.70
2018-09-23T11:19:41.640Z,16.50
2018-09-23T11:22:09.962Z,16.20
2018-09-23T11:24:38.334Z,16.00
2018-09-23T11:27:13.552Z,16.00
2018-09-23T11:29:42.494Z,16.00
2018-09-23T11:32:10.781Z,16.10
2018-09-23T11:34:39.058Z,16.20
2018-09-23T11:37:07.750Z,16.20
2018-09-23T11:39:36.511Z,16.20
2018-09-23T11:42:04.810Z,16.30
2018-09-23T11:44:33.100Z,16.30
2018-09-23T11:47:01.414Z,16.30
2018-09-23T11:49:29.773Z,16.40
2018-09-23T11:51:58.169Z,16.50
2018-09-23T11:54:26.469Z,16.70
2018-09-23T11:56:54.831Z,16.80
2018-09-23T11:59:23.101Z,16.70
2018-09-23T12:01:52.590Z,16.80
2018-09-23T12:04:21.606Z,17.00
2018-09-23T12:06:49.934Z,17.10
2018-09-23T12:09:18.273Z,17.10
2018-09-23T12:11:46.572Z,17.20
2018-09-23T12:14:14.883Z,17.00
2018-09-23T12:16:43.698Z,16.80
2018-09-23T12:19:12.378Z,16.80
2018-09-23T12:21:41.484Z,16.80
2018-09-23T12:24:10.334Z,16.80
2018-09-23T12:26:39.303Z,16.70
2018-09-23T12:29:07.827Z,16.70
2018-09-23T12:31:36.829Z,16.60
2018-09-23T12:34:05.127Z,16.70
2018-09-23T12:36:34.271Z,16.90
2018-09-23T12:39:02.566Z,16.80
2018-09-23T12:41:30.866Z,16.80
2018-09-23T12:43:59.163Z,17.00
2018-09-23T12:46:27.398Z,17.30
2018-09-23T12:48:55.719Z,17.40
2018-09-23T12:51:23.990Z,17.70
2018-09-23T12:53:52.473Z,18.00
2018-09-23T12:56:20.910Z,18.10
2018-09-23T12:58:49.248Z,18.10
2018-09-23T13:03:58.441Z,18.80
2018-09-23T13:06:27.299Z,19.90
2018-09-23T13:08:56.579Z,20.80
2018-09-23T13:11:24.897Z,20.90
2018-09-23T13:13:53.287Z,20.50
2018-09-23T13:16:22.570Z,20.00
2018-09-23T13:18:51.240Z,19.40
2018-09-23T13:21:19.585Z,19.00
2018-09-23T13:23:47.862Z,18.90
2018-09-23T13:26:16.233Z,19.10
2018-09-23T13:28:45.252Z,19.20
2018-09-23T13:33:41.704Z,19.60
2018-09-23T13:36:10.670Z,20.00
2018-09-23T13:38:39.152Z,20.00
2018-09-23T13:41:07.486Z,20.00
2018-09-23T13:43:35.754Z,19.80
2018-09-23T13:46:04.242Z,19.60
2018-09-23T13:48:32.814Z,19.80
2018-09-23T13:51:01.422Z,19.90
2018-09-23T13:53:29.733Z,20.30
2018-09-23T13:55:58.040Z,20.40
2018-09-23T13:58:26.985Z,20.20
2018-09-23T14:00:55.330Z,20.00
2018-09-23T14:03:24.006Z,19.90
2018-09-23T14:05:52.281Z,19.80
2018-09-23T14:08:21.306Z,19.40
2018-09-23T14:10:49.602Z,19.30
2018-09-23T14:13:17.976Z,19.20
2018-09-23T14:15:46.838Z,19.10
2018-09-23T14:18:15.145Z,18.90
2018-09-23T14:20:43.479Z,18.80
2018-09-23T14:23:11.782Z,18.70
2018-09-23T14:25:40.056Z,18.50
2018-09-23T14:28:08.926Z,18.50
2018-09-23T14:30:37.397Z,18.50
2018-09-23T14:33:05.734Z,18.60
2018-09-23T14:35:34.735Z,18.80
2018-09-23T14:38:03.140Z,18.90
2018-09-23T14:40:31.418Z,18.80
2018-09-23T14:42:59.985Z,18.80
2018-09-23T14:45:28.294Z,19.10
2018-09-23T14:47:56.663Z,19.30
2018-09-23T14:50:25.113Z,19.50
2018-09-23T14:52:53.991Z,19.60
2018-09-23T14:55:22.263Z,19.60
2018-09-23T14:57:50.843Z,19.60
2018-09-23T15:00:19.149Z,19.60
2018-09-23T15:02:48.290Z,19.80
2018-09-23T15:05:16.566Z,19.90
2018-09-23T15:07:44.941Z,20.00
2018-09-23T15:10:13.562Z,19.90
2018-09-23T15:12:41.994Z,20.00
2018-09-23T15:15:10.945Z,20.00
2018-09-23T15:17:39.300Z,20.10
2018-09-23T15:20:08.347Z,20.50
2018-09-23T15:22:36.630Z,20.90
2018-09-23T15:25:04.919Z,21.20
2018-09-23T15:27:33.291Z,21.30
2018-09-23T15:30:02.048Z,21.60
2018-09-23T15:32:30.339Z,21.70
2018-09-23T15:35:00.805Z,21.80
2018-09-23T15:37:29.161Z,21.80
2018-09-23T15:39:58.118Z,21.90
2018-09-23T15:42:26.514Z,21.90
2018-09-23T15:44:56.041Z,21.90
2018-09-23T15:47:24.299Z,21.90
2018-09-23T15:49:52.584Z,22.10
2018-09-23T15:52:21.060Z,22.10
2018-09-23T15:54:49.896Z,22.10
2018-09-23T15:57:18.159Z,22.10
2018-09-23T15:59:46.450Z,22.20
2018-09-23T16:02:15.837Z,22.20
2018-09-23T16:04:44.169Z,22.20
2018-09-23T16:07:12.442Z,22.30
2018-09-23T16:09:40.747Z,22.30
2018-09-23T16:12:09.042Z,22.30
2018-09-23T16:14:38.018Z,22.30
2018-09-23T16:17:06.481Z,22.20
2018-09-23T16:19:34.787Z,22.10
2018-09-23T16:22:03.144Z,22.20
2018-09-23T16:24:32.300Z,22.20
2018-09-23T16:27:00.747Z,22.10
2018-09-23T16:29:29.605Z,22.20
2018-09-23T16:31:57.852Z,22.20
2018-09-23T16:34:26.425Z,22.20
2018-09-23T16:36:54.872Z,22.30
2018-09-23T16:39:23.166Z,22.20
2018-09-23T16:44:25.591Z,22.20
2018-09-23T16:46:53.861Z,22.30
2018-09-23T16:49:22.166Z,22.30
2018-09-23T16:51:53.718Z,22.30
2018-09-23T16:54:22.043Z,22.30
2018-09-23T16:56:50.485Z,22.30
2018-09-23T16:59:18.842Z,22.30
2018-09-23T17:01:47.778Z,22.30
2018-09-23T17:04:16.691Z,22.40
2018-09-23T17:06:45.258Z,22.20
2018-09-23T17:09:13.615Z,22.30
2018-09-23T17:11:41.962Z,22.30
2018-09-23T17:14:10.322Z,22.30
2018-09-23T17:16:39.007Z,22.30
2018-09-23T17:19:07.494Z,22.30
2018-09-23T17:21:36.029Z,22.50
2018-09-23T17:24:05.088Z,22.50
2018-09-23T17:26:33.359Z,22.50
2018-09-23T17:29:02.469Z,22.40
2018-09-23T17:31:32.130Z,22.40
2018-09-23T17:34:00.486Z,22.40
2018-09-23T17:36:29.595Z,22.40
2018-09-23T17:38:58.987Z,22.40
2018-09-23T17:41:37.275Z,22.40
2018-09-23T17:44:06.011Z,22.30
2018-09-23T17:46:34.580Z,22.10
2018-09-23T17:49:03.161Z,20.90
2018-09-23T17:51:31.651Z,20.00
2018-09-23T17:54:00.968Z,19.20
2018-09-23T17:56:29.550Z,18.30
2018-09-23T17:58:58.238Z,17.00
2018-09-23T18:01:34.088Z,16.20
2018-09-23T18:04:03.494Z,15.80
2018-09-23T18:06:32.467Z,15.50
2018-09-23T18:09:00.761Z,15.40
2018-09-23T18:11:30.370Z,15.30
2018-09-23T18:13:59.942Z,15.20
2018-09-23T18:16:29.766Z,15.20
2018-09-23T18:18:58.072Z,15.10
2018-09-23T18:21:26.641Z,15.10
2018-09-23T18:24:03.197Z,15.20
2018-09-23T18:26:33.416Z,15.20
2018-09-23T18:29:02.530Z,15.20
2018-09-23T18:31:31.121Z,15.10
2018-09-23T18:34:01.809Z,15.10
2018-09-23T18:36:30.600Z,15.10
2018-09-23T18:38:59.010Z,15.00
2018-09-23T18:41:27.315Z,15.00
2018-09-23T18:43:55.597Z,14.90
2018-09-23T18:46:23.910Z,15.00
2018-09-23T18:48:52.248Z,15.00
2018-09-23T18:51:20.539Z,15.00
2018-09-23T18:53:54.244Z,15.00
2018-09-23T18:56:22.951Z,15.00
2018-09-23T18:58:51.328Z,15.00
2018-09-23T19:01:32.362Z,14.90
2018-09-23T19:04:01.198Z,15.00
2018-09-23T19:06:29.449Z,15.00
2018-09-23T19:08:57.734Z,15.00
2018-09-23T19:11:26.059Z,14.90
2018-09-23T19:13:54.959Z,14.80
2018-09-23T19:16:30.653Z,14.80
2018-09-23T19:18:59.994Z,14.70
2018-09-23T19:21:28.932Z,14.70
2018-09-23T19:23:58.377Z,14.60
2018-09-23T19:26:26.890Z,14.70
2018-09-23T19:28:55.271Z,14.70
2018-09-23T19:31:23.910Z,14.70
2018-09-23T19:33:52.740Z,14.80
2018-09-23T19:36:21.475Z,14.80
2018-09-23T19:38:49.749Z,14.80
2018-09-23T19:41:18.067Z,14.80
2018-09-23T19:43:46.370Z,14.70
2018-09-23T19:46:14.663Z,14.70
2018-09-23T19:48:43.022Z,14.60
2018-09-23T19:51:11.292Z,14.60
2018-09-23T19:53:39.570Z,14.40
2018-09-23T19:56:07.846Z,14.40
2018-09-23T19:58:36.125Z,14.20
2018-09-23T20:01:04.450Z,14.20
2018-09-23T20:03:33.138Z,14.10
2018-09-23T20:06:01.436Z,14.00
2018-09-23T20:08:29.709Z,14.00
2018-09-23T20:10:58.179Z,14.10
2018-09-23T20:13:27.111Z,14.20
2018-09-23T20:15:55.995Z,14.10
2018-09-23T20:18:24.269Z,14.10
2018-09-23T20:20:53.190Z,14.00
2018-09-23T20:23:21.478Z,14.00
2018-09-23T20:25:49.722Z,14.00
2018-09-23T20:28:24.789Z,14.00
2018-09-23T20:30:53.561Z,13.90
2018-09-23T20:33:21.847Z,13.90
2018-09-23T20:35:50.714Z,13.90
2018-09-23T20:38:18.966Z,13.90
2018-09-23T20:40:47.228Z,13.90
2018-09-23T20:43:15.522Z,13.80
2018-09-23T20:45:43.805Z,13.80
2018-09-23T20:48:12.177Z,13.80
2018-09-23T20:50:40.488Z,13.80
2018-09-23T20:53:08.793Z,13.80
2018-09-23T20:55:37.085Z,13.80
2018-09-23T20:58:05.737Z,13.80
2018-09-23T21:00:35.380Z,13.80
2018-09-23T21:03:04.181Z,13.70
2018-09-23T21:05:32.524Z,13.70
2018-09-23T21:08:00.870Z,13.70
2018-09-23T21:10:29.166Z,13.60
2018-09-23T21:12:57.448Z,13.40
2018-09-23T21:15:26.241Z,13.30
2018-09-23T21:17:54.506Z,13.20
2018-09-23T21:20:22.781Z,13.10
2018-09-23T21:22:51.070Z,13.00
2018-09-23T21:25:19.345Z,13.00
2018-09-23T21:27:48.071Z,13.00
2018-09-23T21:30:20.640Z,12.90
2018-09-23T21:32:48.913Z,12.80
2018-09-23T21:35:17.552Z,12.80
2018-09-23T21:37:45.915Z,12.80
2018-09-23T21:40:14.197Z,12.70
2018-09-23T21:42:42.484Z,12.70
2018-09-23T21:45:10.746Z,12.60
2018-09-23T21:47:39.102Z,12.60
2018-09-23T21:50:07.541Z,12.50
2018-09-23T21:52:35.830Z,12.50
2018-09-23T21:55:04.123Z,12.40
2018-09-23T21:57:32.587Z,12.20
2018-09-23T22:00:00.867Z,11.90
2018-09-23T22:02:29.469Z,11.80
2018-09-23T22:04:57.731Z,11.80
2018-09-23T22:07:26.019Z,11.80
2018-09-23T22:09:54.449Z,11.80
2018-09-23T22:12:22.714Z,11.70
2018-09-23T22:14:51.445Z,11.70
2018-09-23T22:17:19.716Z,11.60
2018-09-23T22:19:48.302Z,11.50
2018-09-23T22:22:16.598Z,11.60
2018-09-23T22:24:44.890Z,11.60
2018-09-23T22:27:13.190Z,11.50
2018-09-23T22:29:41.477Z,11.60
2018-09-23T22:32:10.281Z,11.60
2018-09-23T22:34:38.573Z,11.50
2018-09-23T22:37:07.433Z,11.50
2018-09-23T22:39:35.738Z,11.50
2018-09-23T22:42:04.037Z,11.40
2018-09-23T22:44:32.317Z,11.40
2018-09-23T22:47:00.614Z,11.30
2018-09-23T22:49:29.500Z,11.30
2018-09-23T22:51:57.796Z,11.30
2018-09-23T22:54:26.102Z,11.30
2018-09-23T22:56:54.500Z,11.30
2018-09-23T22:59:22.820Z,11.10
2018-09-23T23:01:51.405Z,11.20
2018-09-23T23:04:20.075Z,11.20
2018-09-23T23:06:48.299Z,11.20
2018-09-23T23:09:17.295Z,11.20
2018-09-23T23:11:45.575Z,11.20
2018-09-23T23:14:15.797Z,11.20
2018-09-23T23:16:44.361Z,11.30
2018-09-23T23:19:12.684Z,11.30
2018-09-23T23:21:40.984Z,11.20
2018-09-23T23:24:09.306Z,11.20
2018-09-23T23:26:37.586Z,11.20
2018-09-23T23:29:05.969Z,11.30
2018-09-23T23:31:34.773Z,11.20
2018-09-23T23:34:03.066Z,11.20
2018-09-23T23:36:31.618Z,11.10
2018-09-23T23:38:59.898Z,11.10
2018-09-23T23:41:28.471Z,11.10
2018-09-23T23:43:56.743Z,11.00
2018-09-23T23:46:25.034Z,11.00
2018-09-23T23:48:53.341Z,10.90
2018-09-23T23:51:21.634Z,11.00
2018-09-23T23:53:49.965Z,11.00
2018-09-23T23:56:18.253Z,11.00
2018-09-23T23:58:46.553Z,11.00
